Terminal Aerodrome Forecast
Issued by NWS Topeka, KS

Home | Current Version | Previous Version | Graphics & Text | Print | Product List | Glossary On
Versions: 1 2 3 4 5 6 7 8 9 10 11 12 13 14 15 16 17 18 19 20 21 22 23 24 25 26 27 28 29
000
FTUS43 KTOP 260939 AAC
TAFTOP
TAF AMD
KTOP 260939Z 2610/2706 06003KT P6SM -SHRA SCT020 OVC070
      TEMPO 2610/2612 4SM TSRA BR BKN015CB
     FM261300 08005KT P6SM OVC040
     FM262000 14006KT P6SM OVC045
     FM270200 09006KT P6SM VCTS OVC020CB=

USA.gov is the U.S. government's official web portal to all federal, state and local government web resources and services.